sensor_id;sensor_type;location;lat;lon;timestamp;pressure;altitude;pressure_sealevel;temperature;humidity
79085;BME280;68486;42.808;23.422;2023-04-07T00:02:01;93863.59;;;-1.58;74.81
79085;BME280;68486;42.808;23.422;2023-04-07T00:04:27;93860.91;;;-1.57;75.04
79085;BME280;68486;42.808;23.422;2023-04-07T00:06:52;93864.72;;;-1.51;74.13
79085;BME280;68486;42.808;23.422;2023-04-07T00:09:18;93866.56;;;-1.53;74.64
79085;BME280;68486;42.808;23.422;2023-04-07T00:11:43;93868.03;;;-1.60;75.33
79085;BME280;68486;42.808;23.422;2023-04-07T00:14:08;93832.47;;;-1.86;75.42
79085;BME280;68486;42.808;23.422;2023-04-07T00:16:34;93867.63;;;-1.65;75.56
79085;BME280;68486;42.808;23.422;2023-04-07T00:19:00;93858.97;;;-1.64;74.52
79085;BME280;68486;42.808;23.422;2023-04-07T00:21:25;93861.94;;;-1.59;75.67
79085;BME280;68486;42.808;23.422;2023-04-07T00:23:51;93860.41;;;-1.72;75.36
79085;BME280;68486;42.808;23.422;2023-04-07T00:26:16;93860.41;;;-1.72;76.09
79085;BME280;68486;42.808;23.422;2023-04-07T00:28:42;93867.00;;;-1.79;76.24
79085;BME280;68486;42.808;23.422;2023-04-07T00:31:07;93861.84;;;-1.79;75.62
79085;BME280;68486;42.808;23.422;2023-04-07T00:33:33;93860.91;;;-1.78;76.10
79085;BME280;68486;42.808;23.422;2023-04-07T00:35:58;93870.72;;;-1.83;76.47
79085;BME280;68486;42.808;23.422;2023-04-07T00:38:23;93862.28;;;-1.95;76.67
79085;BME280;68486;42.808;23.422;2023-04-07T00:40:49;93858.53;;;-1.90;76.89
79085;BME280;68486;42.808;23.422;2023-04-07T00:43:15;93864.88;;;-1.95;76.49
79085;BME280;68486;42.808;23.422;2023-04-07T00:45:40;93867.03;;;-1.90;76.90
79085;BME280;68486;42.808;23.422;2023-04-07T00:48:06;93861.59;;;-1.76;75.17
79085;BME280;68486;42.808;23.422;2023-04-07T00:50:32;93865.91;;;-1.76;75.22
79085;BME280;68486;42.808;23.422;2023-04-07T00:52:57;93862.09;;;-1.82;74.98
79085;BME280;68486;42.808;23.422;2023-04-07T00:55:23;93864.25;;;-1.87;74.60
79085;BME280;68486;42.808;23.422;2023-04-07T00:57:48;93865.88;;;-1.86;76.06
79085;BME280;68486;42.808;23.422;2023-04-07T01:00:14;93853.38;;;-1.90;76.24
79085;BME280;68486;42.808;23.422;2023-04-07T01:02:47;93855.00;;;-1.89;75.86
79085;BME280;68486;42.808;23.422;2023-04-07T01:05:33;93857.66;;;-1.80;73.94
79085;BME280;68486;42.808;23.422;2023-04-07T01:08:16;93856.44;;;-1.76;73.22
79085;BME280;68486;42.808;23.422;2023-04-07T01:10:55;93855.59;;;-1.86;74.52
79085;BME280;68486;42.808;23.422;2023-04-07T01:13:28;93854.00;;;-1.77;73.25
79085;BME280;68486;42.808;23.422;2023-04-07T01:15:57;93851.31;;;-1.76;72.87
79085;BME280;68486;42.808;23.422;2023-04-07T01:18:35;93857.47;;;-1.88;74.02
79085;BME280;68486;42.808;23.422;2023-04-07T01:21:13;93850.31;;;-1.63;71.80
79085;BME280;68486;42.808;23.422;2023-04-07T01:23:51;93846.91;;;-1.43;69.83
79085;BME280;68486;42.808;23.422;2023-04-07T01:26:25;93833.28;;;-1.64;70.89
79085;BME280;68486;42.808;23.422;2023-04-07T01:31:43;93846.94;;;-1.85;73.28
79085;BME280;68486;42.808;23.422;2023-04-07T01:34:11;93845.78;;;-2.02;74.92
79085;BME280;68486;42.808;23.422;2023-04-07T01:36:37;93843.06;;;-2.00;75.57
79085;BME280;68486;42.808;23.422;2023-04-07T01:39:04;93843.44;;;-2.05;75.12
79085;BME280;68486;42.808;23.422;2023-04-07T01:41:31;93842.25;;;-2.01;74.56
79085;BME280;68486;42.808;23.422;2023-04-07T01:43:57;93840.44;;;-2.10;74.54
79085;BME280;68486;42.808;23.422;2023-04-07T01:46:25;93839.00;;;-2.03;75.04
79085;BME280;68486;42.808;23.422;2023-04-07T01:48:51;93834.25;;;-2.07;74.79
79085;BME280;68486;42.808;23.422;2023-04-07T01:51:18;93837.34;;;-1.83;71.95
79085;BME280;68486;42.808;23.422;2023-04-07T01:53:45;93829.28;;;-1.99;74.12
79085;BME280;68486;42.808;23.422;2023-04-07T01:56:11;93827.00;;;-2.02;73.94
79085;BME280;68486;42.808;23.422;2023-04-07T01:58:37;93823.91;;;-1.96;73.76
79085;BME280;68486;42.808;23.422;2023-04-07T02:01:02;93827.16;;;-1.94;72.66
79085;BME280;68486;42.808;23.422;2023-04-07T02:06:06;93825.41;;;-1.73;71.17
79085;BME280;68486;42.808;23.422;2023-04-07T02:08:35;93818.50;;;-1.72;71.38
79085;BME280;68486;42.808;23.422;2023-04-07T02:11:01;93821.94;;;-1.62;70.88
79085;BME280;68486;42.808;23.422;2023-04-07T02:13:28;93823.19;;;-1.56;70.35
79085;BME280;68486;42.808;23.422;2023-04-07T02:15:55;93822.75;;;-1.61;69.84
79085;BME280;68486;42.808;23.422;2023-04-07T02:18:21;93831.00;;;-1.27;67.95
79085;BME280;68486;42.808;23.422;2023-04-07T02:20:49;93824.47;;;-1.41;68.76
79085;BME280;68486;42.808;23.422;2023-04-07T02:23:16;93830.34;;;-1.20;67.83
79085;BME280;68486;42.808;23.422;2023-04-07T02:25:41;93833.19;;;-1.23;69.46
79085;BME280;68486;42.808;23.422;2023-04-07T02:28:07;93836.16;;;-1.18;68.09
79085;BME280;68486;42.808;23.422;2023-04-07T02:30:33;93832.13;;;-1.11;68.42
79085;BME280;68486;42.808;23.422;2023-04-07T02:32:59;93831.38;;;-1.01;67.90
79085;BME280;68486;42.808;23.422;2023-04-07T02:35:24;93833.00;;;-1.00;67.41
79085;BME280;68486;42.808;23.422;2023-04-07T02:37:50;93829.34;;;-0.98;67.65
79085;BME280;68486;42.808;23.422;2023-04-07T02:40:15;93828.00;;;-0.92;67.59
79085;BME280;68486;42.808;23.422;2023-04-07T02:42:41;93820.97;;;-0.90;66.44
79085;BME280;68486;42.808;23.422;2023-04-07T02:45:07;93823.09;;;-0.95;67.42
79085;BME280;68486;42.808;23.422;2023-04-07T02:47:34;93792.47;;;-1.18;66.72
79085;BME280;68486;42.808;23.422;2023-04-07T02:50:00;93835.00;;;-1.04;67.04
79085;BME280;68486;42.808;23.422;2023-04-07T02:52:26;93830.09;;;-1.17;68.32
79085;BME280;68486;42.808;23.422;2023-04-07T02:54:51;93833.72;;;-1.29;69.00
79085;BME280;68486;42.808;23.422;2023-04-07T02:57:17;93826.94;;;-1.30;68.21
79085;BME280;68486;42.808;23.422;2023-04-07T02:59:42;93819.31;;;-1.41;68.29
79085;BME280;68486;42.808;23.422;2023-04-07T03:02:08;93828.28;;;-1.35;66.92
79085;BME280;68486;42.808;23.422;2023-04-07T03:04:33;93831.56;;;-1.54;69.62
79085;BME280;68486;42.808;23.422;2023-04-07T03:06:59;93812.47;;;-1.61;68.64
79085;BME280;68486;42.808;23.422;2023-04-07T03:09:25;93831.88;;;-1.48;68.28
79085;BME280;68486;42.808;23.422;2023-04-07T03:11:50;93832.50;;;-1.55;68.44
79085;BME280;68486;42.808;23.422;2023-04-07T03:14:16;93839.66;;;-1.59;69.22
79085;BME280;68486;42.808;23.422;2023-04-07T03:16:41;93832.50;;;-1.55;67.89
79085;BME280;68486;42.808;23.422;2023-04-07T03:19:10;93833.97;;;-1.62;69.48
79085;BME280;68486;42.808;23.422;2023-04-07T03:21:36;93828.97;;;-1.64;68.77
79085;BME280;68486;42.808;23.422;2023-04-07T03:24:03;93826.44;;;-1.75;69.79
79085;BME280;68486;42.808;23.422;2023-04-07T03:26:28;93828.91;;;-1.74;68.96
79085;BME280;68486;42.808;23.422;2023-04-07T03:28:54;93827.47;;;-1.67;68.88
79085;BME280;68486;42.808;23.422;2023-04-07T03:31:19;93827.03;;;-1.72;68.90
79085;BME280;68486;42.808;23.422;2023-04-07T03:33:45;93828.38;;;-1.68;68.57
79085;BME280;68486;42.808;23.422;2023-04-07T03:36:10;93827.84;;;-1.71;68.81
79085;BME280;68486;42.808;23.422;2023-04-07T03:38:36;93830.44;;;-1.61;67.56
79085;BME280;68486;42.808;23.422;2023-04-07T03:41:01;93827.47;;;-1.36;66.32
79085;BME280;68486;42.808;23.422;2023-04-07T03:43:27;93834.91;;;-1.33;66.26
79085;BME280;68486;42.808;23.422;2023-04-07T03:45:52;93837.63;;;-1.25;65.97
79085;BME280;68486;42.808;23.422;2023-04-07T03:48:18;93836.75;;;-1.14;66.25
79085;BME280;68486;42.808;23.422;2023-04-07T03:50:44;93841.09;;;-1.05;65.36
79085;BME280;68486;42.808;23.422;2023-04-07T03:53:10;93844.63;;;-0.96;64.12
79085;BME280;68486;42.808;23.422;2023-04-07T03:55:38;93840.44;;;-0.97;64.74
79085;BME280;68486;42.808;23.422;2023-04-07T03:58:04;93841.38;;;-0.98;65.67
79085;BME280;68486;42.808;23.422;2023-04-07T04:00:29;93848.97;;;-0.87;64.72
79085;BME280;68486;42.808;23.422;2023-04-07T04:02:57;93849.00;;;-0.77;64.19
79085;BME280;68486;42.808;23.422;2023-04-07T04:05:22;93839.25;;;-0.84;64.54
79085;BME280;68486;42.808;23.422;2023-04-07T04:07:48;93850.66;;;-0.67;63.79
79085;BME280;68486;42.808;23.422;2023-04-07T04:10:15;93838.06;;;-0.70;63.66
79085;BME280;68486;42.808;23.422;2023-04-07T04:12:40;93851.88;;;-0.61;64.57
79085;BME280;68486;42.808;23.422;2023-04-07T04:15:06;93852.59;;;-0.49;63.91
79085;BME280;68486;42.808;23.422;2023-04-07T04:17:32;93861.13;;;-0.49;63.85
79085;BME280;68486;42.808;23.422;2023-04-07T04:19:57;93860.97;;;-0.47;63.52
79085;BME280;68486;42.808;23.422;2023-04-07T04:22:22;93861.41;;;-0.42;63.72
79085;BME280;68486;42.808;23.422;2023-04-07T04:24:48;93856.38;;;-0.34;62.90
79085;BME280;68486;42.808;23.422;2023-04-07T04:27:13;93864.78;;;-0.22;62.63
79085;BME280;68486;42.808;23.422;2023-04-07T04:29:39;93850.72;;;-0.28;62.91
79085;BME280;68486;42.808;23.422;2023-04-07T04:32:04;93867.91;;;-0.19;62.45
79085;BME280;68486;42.808;23.422;2023-04-07T04:34:30;93869.13;;;-0.13;62.19
79085;BME280;68486;42.808;23.422;2023-04-07T04:36:55;93871.97;;;-0.07;61.92
79085;BME280;68486;42.808;23.422;2023-04-07T04:39:20;93876.84;;;-0.04;61.38
79085;BME280;68486;42.808;23.422;2023-04-07T04:41:46;93871.81;;;0.05;61.58
79085;BME280;68486;42.808;23.422;2023-04-07T04:44:11;93878.34;;;0.09;62.54
79085;BME280;68486;42.808;23.422;2023-04-07T04:46:37;93864.25;;;0.03;61.44
79085;BME280;68486;42.808;23.422;2023-04-07T04:49:02;93874.78;;;0.19;61.36
79085;BME280;68486;42.808;23.422;2023-04-07T04:51:28;93865.84;;;0.14;62.17
79085;BME280;68486;42.808;23.422;2023-04-07T04:53:53;93876.94;;;0.34;61.51
79085;BME280;68486;42.808;23.422;2023-04-07T04:56:19;93876.81;;;0.35;62.19
79085;BME280;68486;42.808;23.422;2023-04-07T04:58:45;93885.22;;;0.37;62.04
79085;BME280;68486;42.808;23.422;2023-04-07T05:01:11;93889.53;;;0.46;60.91
79085;BME280;68486;42.808;23.422;2023-04-07T05:03:37;93886.94;;;0.56;61.85
79085;BME280;68486;42.808;23.422;2023-04-07T05:06:02;93885.88;;;0.59;61.54
79085;BME280;68486;42.808;23.422;2023-04-07T05:08:28;93881.88;;;0.74;61.03
79085;BME280;68486;42.808;23.422;2023-04-07T05:10:53;93890.13;;;0.77;60.25
79085;BME280;68486;42.808;23.422;2023-04-07T05:13:20;93882.84;;;0.73;60.17
79085;BME280;68486;42.808;23.422;2023-04-07T05:15:45;93892.72;;;0.87;60.35
79085;BME280;68486;42.808;23.422;2023-04-07T05:18:11;93896.22;;;0.86;60.52
79085;BME280;68486;42.808;23.422;2023-04-07T05:20:36;93900.72;;;0.84;59.49
79085;BME280;68486;42.808;23.422;2023-04-07T05:23:02;93898.53;;;0.89;61.87
79085;BME280;68486;42.808;23.422;2023-04-07T05:25:27;93899.84;;;0.93;59.98
79085;BME280;68486;42.808;23.422;2023-04-07T05:27:53;93899.84;;;1.03;58.81
79085;BME280;68486;42.808;23.422;2023-04-07T05:30:18;93901.03;;;1.08;59.21
79085;BME280;68486;42.808;23.422;2023-04-07T05:32:44;93902.38;;;1.13;60.21
79085;BME280;68486;42.808;23.422;2023-04-07T05:35:09;93896.34;;;1.22;58.38
79085;BME280;68486;42.808;23.422;2023-04-07T05:37:35;93899.41;;;1.35;57.97
79085;BME280;68486;42.808;23.422;2023-04-07T05:40:00;93901.56;;;1.40;56.82
79085;BME280;68486;42.808;23.422;2023-04-07T05:42:26;93898.47;;;1.36;56.97
79085;BME280;68486;42.808;23.422;2023-04-07T05:44:51;93903.72;;;1.44;56.26
79085;BME280;68486;42.808;23.422;2023-04-07T05:47:17;93906.03;;;1.47;56.42
79085;BME280;68486;42.808;23.422;2023-04-07T05:49:42;93907.38;;;1.69;58.36
79085;BME280;68486;42.808;23.422;2023-04-07T05:52:13;93902.50;;;1.66;58.93
79085;BME280;68486;42.808;23.422;2023-04-07T05:54:39;93874.59;;;1.52;58.50
79085;BME280;68486;42.808;23.422;2023-04-07T05:57:05;93888.13;;;1.63;56.55
79085;BME280;68486;42.808;23.422;2023-04-07T05:59:32;93907.03;;;1.82;55.87
79085;BME280;68486;42.808;23.422;2023-04-07T06:01:57;93904.88;;;1.95;56.59
79085;BME280;68486;42.808;23.422;2023-04-07T06:04:23;93903.50;;;2.01;56.21
79085;BME280;68486;42.808;23.422;2023-04-07T06:06:48;93909.91;;;2.14;56.68
79085;BME280;68486;42.808;23.422;2023-04-07T06:09:13;93907.09;;;2.43;62.33
79085;BME280;68486;42.808;23.422;2023-04-07T06:11:39;93905.97;;;2.64;62.04
79085;BME280;68486;42.808;23.422;2023-04-07T06:14:05;93908.03;;;2.86;60.17
79085;BME280;68486;42.808;23.422;2023-04-07T06:16:30;93904.19;;;2.64;61.17
79085;BME280;68486;42.808;23.422;2023-04-07T06:18:55;93896.88;;;2.86;60.19
79085;BME280;68486;42.808;23.422;2023-04-07T06:21:21;93906.56;;;3.10;59.63
79085;BME280;68486;42.808;23.422;2023-04-07T06:23:46;93899.13;;;2.55;57.11
79085;BME280;68486;42.808;23.422;2023-04-07T06:26:12;93911.50;;;2.95;56.89
79085;BME280;68486;42.808;23.422;2023-04-07T06:28:37;93913.16;;;3.04;56.20
79085;BME280;68486;42.808;23.422;2023-04-07T06:31:03;93913.06;;;4.06;52.62
79085;BME280;68486;42.808;23.422;2023-04-07T06:33:29;93913.25;;;4.29;53.15
79085;BME280;68486;42.808;23.422;2023-04-07T06:35:54;93919.16;;;3.81;55.58
79085;BME280;68486;42.808;23.422;2023-04-07T06:38:21;93902.31;;;3.77;52.32
79085;BME280;68486;42.808;23.422;2023-04-07T06:40:46;93913.88;;;4.07;53.87
79085;BME280;68486;42.808;23.422;2023-04-07T06:43:11;93914.16;;;3.87;51.48
79085;BME280;68486;42.808;23.422;2023-04-07T06:45:37;93923.84;;;3.77;53.10
79085;BME280;68486;42.808;23.422;2023-04-07T06:48:02;93911.97;;;3.58;52.22
79085;BME280;68486;42.808;23.422;2023-04-07T06:50:28;93913.25;;;4.13;nan
79085;BME280;68486;42.808;23.422;2023-04-07T06:52:53;93921.38;;;4.67;51.63
79085;BME280;68486;42.808;23.422;2023-04-07T06:55:18;93920.94;;;3.80;51.78
79085;BME280;68486;42.808;23.422;2023-04-07T06:57:44;93920.66;;;4.00;51.27
79085;BME280;68486;42.808;23.422;2023-04-07T07:00:10;93922.00;;;4.28;50.21
79085;BME280;68486;42.808;23.422;2023-04-07T07:02:36;93887.81;;;4.17;50.52
79085;BME280;68486;42.808;23.422;2023-04-07T07:05:01;93921.69;;;4.48;50.45
79085;BME280;68486;42.808;23.422;2023-04-07T07:07:29;93926.56;;;4.59;49.18
79085;BME280;68486;42.808;23.422;2023-04-07T07:09:54;93920.94;;;5.43;48.87
79085;BME280;68486;42.808;23.422;2023-04-07T07:12:19;93924.41;;;5.11;46.47
79085;BME280;68486;42.808;23.422;2023-04-07T07:14:45;93931.59;;;4.93;46.88
79085;BME280;68486;42.808;23.422;2023-04-07T07:17:10;93931.75;;;4.67;47.96
79085;BME280;68486;42.808;23.422;2023-04-07T07:19:36;93929.78;;;4.93;48.84
79085;BME280;68486;42.808;23.422;2023-04-07T07:22:01;93920.63;;;5.38;48.76
79085;BME280;68486;42.808;23.422;2023-04-07T07:24:28;93925.84;;;6.40;47.40
79085;BME280;68486;42.808;23.422;2023-04-07T07:26:54;93910.06;;;6.41;46.60
79085;BME280;68486;42.808;23.422;2023-04-07T07:29:20;93934.81;;;6.98;45.35
79085;BME280;68486;42.808;23.422;2023-04-07T07:31:46;93936.09;;;5.63;45.92
79085;BME280;68486;42.808;23.422;2023-04-07T07:34:11;93939.88;;;5.99;47.56
79085;BME280;68486;42.808;23.422;2023-04-07T07:36:37;93937.81;;;5.39;46.10
79085;BME280;68486;42.808;23.422;2023-04-07T07:39:02;93939.47;;;6.19;45.28
79085;BME280;68486;42.808;23.422;2023-04-07T07:41:27;93938.69;;;5.63;46.22
79085;BME280;68486;42.808;23.422;2023-04-07T07:43:53;93939.91;;;5.44;46.52
79085;BME280;68486;42.808;23.422;2023-04-07T07:46:18;93937.25;;;6.99;44.04
79085;BME280;68486;42.808;23.422;2023-04-07T07:48:43;93938.53;;;6.12;44.54
79085;BME280;68486;42.808;23.422;2023-04-07T07:51:10;93944.44;;;5.42;44.31
79085;BME280;68486;42.808;23.422;2023-04-07T07:53:36;93948.63;;;4.79;45.29
79085;BME280;68486;42.808;23.422;2023-04-07T07:56:01;93947.94;;;4.77;46.43
79085;BME280;68486;42.808;23.422;2023-04-07T07:58:26;93948.34;;;5.46;45.94
79085;BME280;68486;42.808;23.422;2023-04-07T08:00:52;93946.47;;;5.23;45.96
79085;BME280;68486;42.808;23.422;2023-04-07T08:03:17;93938.91;;;5.53;46.17
79085;BME280;68486;42.808;23.422;2023-04-07T08:05:44;93948.94;;;4.68;45.85
79085;BME280;68486;42.808;23.422;2023-04-07T08:08:10;93949.91;;;4.83;46.04
79085;BME280;68486;42.808;23.422;2023-04-07T08:10:35;93924.09;;;4.90;44.69
79085;BME280;68486;42.808;23.422;2023-04-07T08:13:01;93948.91;;;5.17;43.91
79085;BME280;68486;42.808;23.422;2023-04-07T08:15:26;93953.13;;;5.10;45.58
79085;BME280;68486;42.808;23.422;2023-04-07T08:17:51;93949.66;;;5.42;45.13
79085;BME280;68486;42.808;23.422;2023-04-07T08:20:17;93954.28;;;5.63;42.35
79085;BME280;68486;42.808;23.422;2023-04-07T08:22:43;93952.34;;;5.57;42.85
79085;BME280;68486;42.808;23.422;2023-04-07T08:25:09;93964.94;;;5.29;42.77
79085;BME280;68486;42.808;23.422;2023-04-07T08:27:37;93952.13;;;5.19;44.38
79085;BME280;68486;42.808;23.422;2023-04-07T08:30:04;93959.66;;;5.61;42.72
79085;BME280;68486;42.808;23.422;2023-04-07T08:32:40;93960.84;;;5.90;42.78
79085;BME280;68486;42.808;23.422;2023-04-07T08:35:06;93955.00;;;5.40;43.38
79085;BME280;68486;42.808;23.422;2023-04-07T08:37:32;93973.53;;;5.37;42.87
79085;BME280;68486;42.808;23.422;2023-04-07T08:39:58;93964.94;;;5.37;44.49
79085;BME280;68486;42.808;23.422;2023-04-07T08:42:27;93958.88;;;5.52;42.53
79085;BME280;68486;42.808;23.422;2023-04-07T08:45:02;93961.47;;;5.52;43.26
79085;BME280;68486;42.808;23.422;2023-04-07T08:47:30;93956.44;;;6.29;41.21
79085;BME280;68486;42.808;23.422;2023-04-07T08:50:01;93951.50;;;7.56;39.13
79085;BME280;68486;42.808;23.422;2023-04-07T08:52:40;93947.09;;;6.66;39.96
79085;BME280;68486;42.808;23.422;2023-04-07T08:55:08;93955.41;;;6.16;44.63
79085;BME280;68486;42.808;23.422;2023-04-07T08:57:35;93958.38;;;5.65;43.50
79085;BME280;68486;42.808;23.422;2023-04-07T09:00:01;93958.19;;;5.67;43.77
79085;BME280;68486;42.808;23.422;2023-04-07T09:02:34;93959.75;;;5.20;43.54
79085;BME280;68486;42.808;23.422;2023-04-07T09:05:02;93965.69;;;5.53;42.21
79085;BME280;68486;42.808;23.422;2023-04-07T09:07:30;93966.41;;;5.23;43.84
79085;BME280;68486;42.808;23.422;2023-04-07T09:09:56;93966.84;;;5.51;44.52
79085;BME280;68486;42.808;23.422;2023-04-07T09:12:22;93960.75;;;5.75;43.72
79085;BME280;68486;42.808;23.422;2023-04-07T09:14:47;93956.47;;;5.35;42.64
79085;BME280;68486;42.808;23.422;2023-04-07T09:17:12;93966.72;;;5.28;44.21
79085;BME280;68486;42.808;23.422;2023-04-07T09:19:38;93967.56;;;5.12;43.38
79085;BME280;68486;42.808;23.422;2023-04-07T09:22:03;93961.34;;;5.93;43.75
79085;BME280;68486;42.808;23.422;2023-04-07T09:24:29;93966.88;;;6.98;40.76
79085;BME280;68486;42.808;23.422;2023-04-07T09:27:17;93954.72;;;5.82;43.74
79085;BME280;68486;42.808;23.422;2023-04-07T09:29:45;93971.44;;;5.96;42.37
79085;BME280;68486;42.808;23.422;2023-04-07T09:32:11;93967.41;;;6.71;42.29
79085;BME280;68486;42.808;23.422;2023-04-07T09:34:39;93965.63;;;6.71;42.47
79085;BME280;68486;42.808;23.422;2023-04-07T09:37:06;93968.28;;;6.40;43.52
79085;BME280;68486;42.808;23.422;2023-04-07T09:39:32;93952.47;;;5.71;46.97
79085;BME280;68486;42.808;23.422;2023-04-07T09:41:58;93980.22;;;5.95;44.68
79085;BME280;68486;42.808;23.422;2023-04-07T09:44:24;93991.94;;;5.75;43.74
79085;BME280;68486;42.808;23.422;2023-04-07T09:46:53;93986.03;;;5.97;44.22
79085;BME280;68486;42.808;23.422;2023-04-07T09:49:20;93987.28;;;6.41;44.75
79085;BME280;68486;42.808;23.422;2023-04-07T09:51:53;93991.59;;;7.40;41.50
79085;BME280;68486;42.808;23.422;2023-04-07T09:54:35;93985.72;;;8.41;40.46
79085;BME280;68486;42.808;23.422;2023-04-07T09:57:06;93982.22;;;7.60;39.92
79085;BME280;68486;42.808;23.422;2023-04-07T09:59:32;93982.91;;;9.00;40.63
79085;BME280;68486;42.808;23.422;2023-04-07T10:01:59;93959.94;;;7.28;40.99
79085;BME280;68486;42.808;23.422;2023-04-07T10:04:25;93986.28;;;7.33;41.86
79085;BME280;68486;42.808;23.422;2023-04-07T10:06:55;93988.91;;;7.10;42.96
79085;BME280;68486;42.808;23.422;2023-04-07T10:09:25;93995.22;;;6.93;43.51
79085;BME280;68486;42.808;23.422;2023-04-07T10:11:52;93980.97;;;7.27;40.60
79085;BME280;68486;42.808;23.422;2023-04-07T10:14:20;93976.31;;;7.81;41.82
79085;BME280;68486;42.808;23.422;2023-04-07T10:16:46;93978.56;;;7.40;42.24
79085;BME280;68486;42.808;23.422;2023-04-07T10:19:13;93981.75;;;7.27;43.90
79085;BME280;68486;42.808;23.422;2023-04-07T10:21:39;93982.41;;;7.44;43.79
79085;BME280;68486;42.808;23.422;2023-04-07T10:26:58;93985.16;;;8.46;38.87
79085;BME280;68486;42.808;23.422;2023-04-07T10:29:28;93980.34;;;7.25;41.73
79085;BME280;68486;42.808;23.422;2023-04-07T10:31:55;93989.53;;;7.12;41.16
79085;BME280;68486;42.808;23.422;2023-04-07T10:37:18;93974.50;;;7.37;39.90
79085;BME280;68486;42.808;23.422;2023-04-07T10:39:46;93980.16;;;8.15;39.98
79085;BME280;68486;42.808;23.422;2023-04-07T10:45:05;93982.47;;;8.75;38.94
79085;BME280;68486;42.808;23.422;2023-04-07T10:47:31;93988.16;;;7.25;39.67
79085;BME280;68486;42.808;23.422;2023-04-07T10:50:19;93988.16;;;7.25;41.36
79085;BME280;68486;42.808;23.422;2023-04-07T10:52:46;93982.13;;;7.01;41.36
79085;BME280;68486;42.808;23.422;2023-04-07T10:58:20;93986.38;;;6.56;42.38
79085;BME280;68486;42.808;23.422;2023-04-07T11:03:22;93988.78;;;6.58;42.60
79085;BME280;68486;42.808;23.422;2023-04-07T11:05:47;93982.69;;;7.49;40.94
79085;BME280;68486;42.808;23.422;2023-04-07T11:08:13;93984.28;;;7.35;40.39
79085;BME280;68486;42.808;23.422;2023-04-07T11:10:38;93980.97;;;7.27;39.92
79085;BME280;68486;42.808;23.422;2023-04-07T11:13:06;93990.25;;;7.06;42.01
79085;BME280;68486;42.808;23.422;2023-04-07T11:15:33;93996.16;;;7.53;39.63
79085;BME280;68486;42.808;23.422;2023-04-07T11:18:06;93969.88;;;6.87;40.54
79085;BME280;68486;42.808;23.422;2023-04-07T11:23:08;93966.03;;;7.21;40.11
79085;BME280;68486;42.808;23.422;2023-04-07T11:25:34;94000.75;;;7.65;40.10
79085;BME280;68486;42.808;23.422;2023-04-07T11:28:02;94000.38;;;7.01;41.19
79085;BME280;68486;42.808;23.422;2023-04-07T11:30:27;94000.09;;;6.96;41.91
79085;BME280;68486;42.808;23.422;2023-04-07T11:32:55;93996.72;;;6.87;40.73
79085;BME280;68486;42.808;23.422;2023-04-07T11:35:21;93997.44;;;7.57;39.99
79085;BME280;68486;42.808;23.422;2023-04-07T11:37:47;94003.09;;;7.60;40.52
79085;BME280;68486;42.808;23.422;2023-04-07T11:40:12;93989.75;;;7.26;41.69
79085;BME280;68486;42.808;23.422;2023-04-07T11:42:41;93998.97;;;7.13;40.59
79085;BME280;68486;42.808;23.422;2023-04-07T11:45:17;94002.88;;;7.17;39.77
79085;BME280;68486;42.808;23.422;2023-04-07T11:47:43;94001.84;;;6.81;40.80
79085;BME280;68486;42.808;23.422;2023-04-07T11:50:09;93993.16;;;6.88;40.85
79085;BME280;68486;42.808;23.422;2023-04-07T11:52:41;94005.50;;;7.09;40.89
79085;BME280;68486;42.808;23.422;2023-04-07T11:55:16;94009.47;;;7.05;41.28
79085;BME280;68486;42.808;23.422;2023-04-07T11:57:42;94003.78;;;6.79;40.87
79085;BME280;68486;42.808;23.422;2023-04-07T12:00:11;93990.91;;;6.62;41.01
79085;BME280;68486;42.808;23.422;2023-04-07T12:02:38;93991.50;;;6.87;41.09
79085;BME280;68486;42.808;23.422;2023-04-07T12:05:04;94008.25;;;7.31;42.22
79085;BME280;68486;42.808;23.422;2023-04-07T12:07:30;93978.34;;;6.89;41.26
79085;BME280;68486;42.808;23.422;2023-04-07T12:09:55;94003.97;;;7.38;42.84
79085;BME280;68486;42.808;23.422;2023-04-07T12:12:29;93996.09;;;7.46;40.61
79085;BME280;68486;42.808;23.422;2023-04-07T12:14:57;93990.78;;;7.39;39.59
79085;BME280;68486;42.808;23.422;2023-04-07T12:17:24;93999.69;;;7.89;40.29
79085;BME280;68486;42.808;23.422;2023-04-07T12:19:50;93996.75;;;7.78;38.66
79085;BME280;68486;42.808;23.422;2023-04-07T12:22:15;93987.09;;;8.08;38.91
79085;BME280;68486;42.808;23.422;2023-04-07T12:24:41;93990.56;;;7.26;40.30
79085;BME280;68486;42.808;23.422;2023-04-07T12:27:06;93994.44;;;7.45;39.71
79085;BME280;68486;42.808;23.422;2023-04-07T12:29:33;94000.06;;;7.71;40.41
79085;BME280;68486;42.808;23.422;2023-04-07T12:31:59;94004.31;;;7.35;40.90
79085;BME280;68486;42.808;23.422;2023-04-07T12:34:25;93993.53;;;7.38;40.13
79085;BME280;68486;42.808;23.422;2023-04-07T12:36:51;93997.25;;;7.88;37.44
79085;BME280;68486;42.808;23.422;2023-04-07T12:39:17;93991.63;;;7.69;38.03
79085;BME280;68486;42.808;23.422;2023-04-07T12:41:42;93991.00;;;7.97;41.27
79085;BME280;68486;42.808;23.422;2023-04-07T12:44:09;93994.44;;;7.45;40.18
79085;BME280;68486;42.808;23.422;2023-04-07T12:46:35;93997.91;;;7.90;42.57
79085;BME280;68486;42.808;23.422;2023-04-07T12:49:00;93995.19;;;7.39;39.64
79085;BME280;68486;42.808;23.422;2023-04-07T12:51:26;93983.59;;;8.00;40.22
79085;BME280;68486;42.808;23.422;2023-04-07T12:53:52;93989.19;;;7.68;40.67
79085;BME280;68486;42.808;23.422;2023-04-07T12:56:18;93992.03;;;7.73;41.49
79085;BME280;68486;42.808;23.422;2023-04-07T12:58:46;93983.88;;;7.61;40.15
79085;BME280;68486;42.808;23.422;2023-04-07T13:01:12;93972.38;;;7.70;42.41
79085;BME280;68486;42.808;23.422;2023-04-07T13:03:38;93991.00;;;7.82;40.50
79085;BME280;68486;42.808;23.422;2023-04-07T13:06:04;93995.47;;;7.88;41.13
79085;BME280;68486;42.808;23.422;2023-04-07T13:08:29;93989.88;;;7.47;41.23
79085;BME280;68486;42.808;23.422;2023-04-07T13:10:55;94000.31;;;7.62;42.00
79085;BME280;68486;42.808;23.422;2023-04-07T13:13:22;93992.13;;;7.65;40.38
79085;BME280;68486;42.808;23.422;2023-04-07T13:15:48;93991.00;;;7.30;40.63
79085;BME280;68486;42.808;23.422;2023-04-07T13:18:13;93992.78;;;7.14;41.17